createdAt,value
2023-12-19T00:00:30.755Z,2.17
2023-12-19T00:03:35.144Z,1.80
2023-12-19T00:06:45.572Z,1.90
2023-12-19T00:09:49.718Z,1.88
2023-12-19T00:12:54.119Z,2.35
2023-12-19T00:15:57.957Z,1.70
2023-12-19T00:19:02.092Z,1.52
2023-12-19T00:22:11.214Z,1.63
2023-12-19T00:25:14.961Z,1.17
2023-12-19T00:28:19.945Z,1.70
2023-12-19T00:31:24.274Z,1.25
2023-12-19T00:34:30.899Z,1.02
2023-12-19T00:37:35.996Z,1.30
2023-12-19T00:40:40.382Z,1.42
2023-12-19T00:43:47.689Z,1.30
2023-12-19T00:46:55.497Z,1.60
2023-12-19T00:49:59.800Z,1.40
2023-12-19T00:53:06.609Z,1.40
2023-12-19T00:56:12.895Z,1.67
2023-12-19T00:59:16.945Z,1.35
2023-12-19T01:02:22.145Z,1.33
2023-12-19T01:05:25.959Z,1.98
2023-12-19T01:08:32.439Z,2.00
2023-12-19T01:11:36.507Z,1.17
2023-12-19T01:14:45.279Z,1.52
2023-12-19T01:17:54.749Z,1.60
2023-12-19T01:20:58.629Z,1.60
2023-12-19T01:24:14.573Z,1.42
2023-12-19T01:27:23.260Z,1.58
2023-12-19T01:30:27.153Z,1.77
2023-12-19T01:33:31.102Z,1.60
2023-12-19T01:36:35.243Z,1.60
2023-12-19T01:39:41.175Z,1.48
2023-12-19T01:42:45.217Z,1.20
2023-12-19T01:45:50.209Z,1.30
2023-12-19T01:48:55.941Z,0.93
2023-12-19T01:52:01.573Z,1.20
2023-12-19T01:55:09.981Z,1.00
2023-12-19T02:01:24.677Z,1.20
2023-12-19T02:07:35.754Z,1.10
2023-12-19T02:10:46.955Z,1.20
2023-12-19T02:13:51.130Z,1.25
2023-12-19T02:16:55.973Z,1.20
2023-12-19T02:20:02.676Z,1.20
2023-12-19T02:23:09.099Z,1.55
2023-12-19T02:26:13.725Z,1.83
2023-12-19T02:29:20.248Z,1.58
2023-12-19T02:32:25.255Z,1.67
2023-12-19T02:35:29.547Z,1.40
2023-12-19T02:38:37.224Z,1.60
2023-12-19T02:41:45.794Z,1.50
2023-12-19T02:44:52.168Z,1.02
2023-12-19T02:48:00.927Z,1.40
2023-12-19T02:51:07.942Z,1.20
2023-12-19T02:54:19.438Z,1.23
2023-12-19T02:57:27.163Z,1.17
2023-12-19T03:00:45.264Z,1.30
2023-12-19T03:06:57.788Z,1.25
2023-12-19T03:10:10.057Z,1.40
2023-12-19T03:13:19.491Z,1.30
2023-12-19T03:16:23.317Z,1.30
2023-12-19T03:19:29.500Z,1.50
2023-12-19T03:22:35.037Z,1.58
2023-12-19T03:25:42.440Z,1.45
2023-12-19T03:28:46.126Z,1.80
2023-12-19T03:31:49.890Z,1.75
2023-12-19T03:34:55.167Z,1.40
2023-12-19T03:37:59.054Z,1.95
2023-12-19T03:41:07.396Z,1.80
2023-12-19T03:47:16.990Z,1.80
2023-12-19T03:50:20.721Z,2.00
2023-12-19T03:53:25.161Z,2.55
2023-12-19T03:56:30.547Z,2.60
2023-12-19T03:59:34.360Z,3.08
2023-12-19T04:02:40.568Z,2.63
2023-12-19T04:05:47.331Z,2.80
2023-12-19T04:08:51.214Z,3.25
2023-12-19T04:12:03.327Z,2.92
2023-12-19T04:15:12.012Z,3.50
2023-12-19T04:18:17.407Z,3.28
2023-12-19T04:21:21.724Z,3.28
2023-12-19T04:24:29.754Z,3.70
2023-12-19T04:27:35.402Z,3.42
2023-12-19T04:30:39.620Z,3.63
2023-12-19T04:33:43.994Z,3.70
2023-12-19T04:36:48.013Z,3.60
2023-12-19T04:39:52.405Z,3.40
2023-12-19T04:43:00.816Z,2.50
2023-12-19T04:46:04.889Z,2.78
2023-12-19T04:49:09.417Z,2.65
2023-12-19T04:52:15.710Z,2.08
2023-12-19T04:55:19.685Z,2.08
2023-12-19T04:58:25.328Z,1.92
2023-12-19T05:01:29.548Z,1.67
2023-12-19T05:04:33.513Z,4.13
2023-12-19T05:07:37.792Z,2.17
2023-12-19T05:10:42.621Z,2.35
2023-12-19T05:13:48.952Z,2.28
2023-12-19T05:16:53.023Z,2.17
2023-12-19T05:19:59.069Z,1.98
2023-12-19T05:23:03.992Z,2.25
2023-12-19T05:26:09.280Z,2.88
2023-12-19T05:29:30.077Z,2.70
2023-12-19T05:32:34.229Z,2.45
2023-12-19T05:35:37.893Z,2.35
2023-12-19T05:38:42.821Z,2.00
2023-12-19T05:41:47.153Z,1.80
2023-12-19T05:44:52.369Z,1.58
2023-12-19T05:47:56.669Z,1.70
2023-12-19T05:51:01.046Z,1.70
2023-12-19T05:54:04.984Z,1.70
2023-12-19T05:57:11.520Z,2.30
2023-12-19T06:00:19.380Z,2.22
2023-12-19T06:03:25.631Z,2.08
2023-12-19T06:06:47.537Z,2.10
2023-12-19T06:09:52.164Z,1.98
2023-12-19T06:12:56.760Z,2.05
2023-12-19T06:16:06.506Z,1.98
2023-12-19T06:19:11.949Z,2.40
2023-12-19T06:22:17.407Z,2.85
2023-12-19T06:25:22.174Z,3.10
2023-12-19T06:28:26.284Z,2.78
2023-12-19T06:31:59.567Z,2.50
2023-12-19T06:35:05.614Z,2.20
2023-12-19T06:38:11.186Z,2.45
2023-12-19T06:41:20.680Z,1.70
2023-12-19T06:52:02.457Z,2.65
2023-12-19T06:55:21.799Z,2.30
2023-12-19T06:58:29.184Z,2.30
2023-12-19T07:01:35.481Z,3.22
2023-12-19T07:04:42.472Z,2.60
2023-12-19T07:07:53.133Z,2.35
2023-12-19T07:10:58.356Z,2.60
2023-12-19T07:14:02.559Z,1.98
2023-12-19T07:24:35.060Z,2.60
2023-12-19T07:35:33.520Z,2.58
2023-12-19T07:42:40.773Z,2.35
2023-12-19T07:50:06.682Z,2.38
2023-12-19T08:10:54.462Z,2.40
2023-12-19T08:18:10.415Z,3.00
2023-12-19T08:21:34.437Z,2.90
2023-12-19T08:24:57.226Z,3.25
2023-12-19T08:32:01.216Z,3.58
2023-12-19T08:35:29.362Z,3.78
2023-12-19T08:41:49.402Z,3.72
2023-12-19T08:57:17.899Z,4.30
2023-12-19T09:01:08.462Z,4.60
2023-12-19T09:12:12.320Z,2.97
2023-12-19T09:19:00.516Z,3.20
2023-12-19T09:22:27.510Z,3.75
2023-12-19T10:20:14.558Z,6.13
2023-12-19T10:27:42.141Z,5.38
2023-12-19T11:46:23.264Z,5.85
2023-12-19T12:08:33.452Z,6.10
2023-12-19T12:23:03.921Z,7.43
2023-12-19T12:29:44.666Z,7.10
2023-12-19T12:33:16.172Z,7.85
2023-12-19T12:39:46.217Z,8.32
2023-12-19T12:42:51.339Z,8.00
2023-12-19T12:46:26.289Z,6.85
2023-12-19T12:49:35.447Z,6.85
2023-12-19T13:11:33.473Z,7.40
2023-12-19T13:14:42.347Z,7.40
2023-12-19T13:24:50.019Z,6.53
2023-12-19T13:28:02.961Z,6.90
2023-12-19T13:38:17.362Z,6.20
2023-12-19T13:45:28.161Z,4.78
2023-12-19T13:52:47.153Z,4.03
2023-12-19T13:56:13.116Z,3.40
2023-12-19T14:02:40.834Z,3.45
2023-12-19T14:10:15.658Z,3.20
2023-12-19T14:13:27.869Z,2.40
2023-12-19T14:19:52.649Z,2.38
2023-12-19T14:23:05.659Z,1.90
2023-12-19T14:33:47.435Z,2.20
2023-12-19T14:36:51.590Z,1.88
2023-12-19T14:39:55.803Z,1.85
2023-12-19T14:43:00.016Z,2.20
2023-12-19T14:46:06.795Z,1.67
2023-12-19T14:49:20.601Z,2.00
2023-12-19T14:52:28.445Z,1.85
2023-12-19T14:55:53.211Z,1.77
2023-12-19T14:58:59.228Z,1.83
2023-12-19T15:02:04.526Z,1.90
2023-12-19T15:05:15.655Z,1.60
2023-12-19T15:11:45.052Z,1.70
2023-12-19T15:14:49.395Z,1.90
2023-12-19T15:22:11.040Z,2.22
2023-12-19T15:26:09.711Z,2.47
2023-12-19T15:29:18.957Z,2.25
2023-12-19T15:32:23.074Z,1.80
2023-12-19T15:35:29.114Z,2.03
2023-12-19T15:38:36.083Z,2.00
2023-12-19T15:41:40.331Z,2.08
2023-12-19T15:45:01.097Z,2.08
2023-12-19T15:48:08.439Z,1.50
2023-12-19T15:51:22.195Z,1.50
2023-12-19T15:54:26.668Z,2.10
2023-12-19T15:57:31.203Z,1.92
2023-12-19T16:00:37.588Z,1.67
2023-12-19T16:03:46.270Z,1.90
2023-12-19T16:06:56.316Z,1.92
2023-12-19T16:10:00.718Z,2.20
2023-12-19T16:13:05.110Z,1.92
2023-12-19T16:16:12.723Z,1.80
2023-12-19T16:19:22.169Z,1.77
2023-12-19T16:22:27.957Z,1.55
2023-12-19T16:25:32.182Z,1.92
2023-12-19T16:28:37.985Z,1.58
2023-12-19T16:31:46.590Z,1.63
2023-12-19T16:34:52.902Z,1.83
2023-12-19T16:37:57.138Z,1.33
2023-12-19T16:41:02.025Z,1.50
2023-12-19T16:44:08.381Z,1.58
2023-12-19T16:47:15.139Z,1.20
2023-12-19T16:50:19.712Z,1.40
2023-12-19T16:53:24.461Z,1.30
2023-12-19T16:59:51.910Z,1.30
2023-12-19T17:02:59.135Z,1.42
2023-12-19T17:06:05.072Z,1.88
2023-12-19T17:09:12.425Z,1.58
2023-12-19T17:12:17.599Z,1.67
2023-12-19T17:15:22.322Z,1.40
2023-12-19T17:18:43.601Z,1.50
2023-12-19T17:21:47.595Z,1.45
2023-12-19T17:24:52.166Z,1.50
2023-12-19T17:27:56.627Z,1.80
2023-12-19T17:31:01.163Z,1.30
2023-12-19T17:34:09.202Z,1.45
2023-12-19T17:37:13.142Z,1.35
2023-12-19T17:40:30.055Z,1.60
2023-12-19T17:43:35.413Z,1.42
2023-12-19T17:46:40.483Z,1.65
2023-12-19T17:49:45.998Z,1.70
2023-12-19T17:52:50.189Z,1.90
2023-12-19T17:55:58.000Z,1.80
2023-12-19T17:59:08.020Z,1.77
2023-12-19T18:02:12.989Z,1.77
2023-12-19T18:05:19.430Z,1.60
2023-12-19T18:08:23.675Z,1.60
2023-12-19T18:11:27.687Z,1.77
2023-12-19T18:14:32.344Z,1.50
2023-12-19T18:17:36.326Z,1.55
2023-12-19T18:20:49.236Z,1.80
2023-12-19T18:23:53.750Z,2.00
2023-12-19T18:26:58.036Z,1.67
2023-12-19T18:30:05.907Z,2.03
2023-12-19T18:33:15.252Z,2.03
2023-12-19T18:36:25.641Z,1.80
2023-12-19T18:39:29.939Z,1.90
2023-12-19T18:42:33.808Z,1.77
2023-12-19T18:45:38.024Z,2.03
2023-12-19T18:48:42.488Z,1.98
2023-12-19T18:51:48.230Z,2.03
2023-12-19T18:54:52.150Z,1.85
2023-12-19T18:57:56.826Z,2.05
2023-12-19T19:01:01.227Z,1.95
2023-12-19T19:04:05.496Z,1.80
2023-12-19T19:07:11.167Z,2.00
2023-12-19T19:10:16.004Z,2.15
2023-12-19T19:13:20.967Z,1.80
2023-12-19T19:16:27.052Z,1.70
2023-12-19T19:19:31.204Z,2.17
2023-12-19T19:22:39.048Z,1.80
2023-12-19T19:25:48.834Z,2.08
2023-12-19T19:28:52.716Z,1.75
2023-12-19T19:31:57.471Z,1.80
2023-12-19T19:35:10.586Z,2.10
2023-12-19T19:38:26.614Z,1.90
2023-12-19T19:41:35.118Z,1.98
2023-12-19T19:44:40.141Z,2.00
2023-12-19T19:47:56.012Z,1.85
2023-12-19T19:51:00.262Z,1.95
2023-12-19T19:54:05.797Z,2.20
2023-12-19T19:57:12.557Z,2.17
2023-12-19T20:00:17.972Z,1.88
2023-12-19T20:03:22.271Z,2.15
2023-12-19T20:06:32.751Z,1.80
2023-12-19T20:09:40.903Z,2.17
2023-12-19T20:15:51.322Z,2.00
2023-12-19T20:18:58.573Z,1.70
2023-12-19T20:22:04.653Z,1.63
2023-12-19T20:25:11.278Z,1.75
2023-12-19T20:28:18.003Z,2.00
2023-12-19T20:31:26.732Z,2.10
2023-12-19T20:34:33.364Z,1.67
2023-12-19T20:37:37.848Z,1.83
2023-12-19T20:40:43.014Z,1.80
2023-12-19T20:43:49.734Z,2.35
2023-12-19T20:46:57.544Z,1.90
2023-12-19T20:50:01.803Z,2.10
2023-12-19T20:53:08.165Z,2.10
2023-12-19T20:56:13.577Z,2.28
2023-12-19T20:59:19.811Z,2.20
2023-12-19T21:02:23.847Z,1.95
2023-12-19T21:05:30.298Z,2.20
2023-12-19T21:08:35.182Z,2.40
2023-12-19T21:11:52.027Z,2.47
2023-12-19T21:14:58.365Z,2.30
2023-12-19T21:18:05.383Z,2.30
2023-12-19T21:21:15.181Z,2.30
2023-12-19T21:24:20.611Z,2.50
2023-12-19T21:27:27.724Z,2.25
2023-12-19T21:30:47.776Z,2.78
2023-12-19T21:33:57.639Z,2.53
2023-12-19T21:37:03.454Z,2.85
2023-12-19T21:40:09.603Z,2.67
2023-12-19T21:43:19.540Z,2.75
2023-12-19T21:46:25.418Z,2.65
2023-12-19T21:49:29.503Z,2.33
2023-12-19T21:52:43.619Z,2.40
2023-12-19T21:55:50.443Z,2.10
2023-12-19T21:58:58.771Z,2.50
2023-12-19T22:02:03.770Z,2.03
2023-12-19T22:05:12.443Z,2.22
2023-12-19T22:08:20.247Z,2.28
2023-12-19T22:11:28.612Z,2.40
2023-12-19T22:17:45.172Z,2.10
2023-12-19T22:20:53.489Z,2.78
2023-12-19T22:23:59.614Z,2.60
2023-12-19T22:27:06.666Z,2.25
2023-12-19T22:30:15.765Z,2.80
2023-12-19T22:33:20.394Z,2.25
2023-12-19T22:36:31.768Z,2.20
2023-12-19T22:39:40.661Z,2.30
2023-12-19T22:42:51.824Z,2.40
2023-12-19T22:46:04.544Z,2.33
2023-12-19T22:49:11.092Z,2.40
2023-12-19T22:52:16.724Z,2.10
2023-12-19T22:55:21.349Z,2.25
2023-12-19T22:58:27.927Z,2.83
2023-12-19T23:01:46.518Z,2.70
2023-12-19T23:05:13.559Z,2.83
2023-12-19T23:08:20.854Z,3.00
2023-12-19T23:11:26.148Z,2.50
2023-12-19T23:14:35.991Z,2.53
2023-12-19T23:17:42.508Z,2.22
2023-12-19T23:20:48.912Z,2.47
2023-12-19T23:23:58.305Z,2.10
2023-12-19T23:27:09.753Z,2.00
2023-12-19T23:30:17.880Z,1.90
2023-12-19T23:33:32.485Z,1.77
2023-12-19T23:36:41.273Z,1.60
2023-12-19T23:39:45.620Z,2.03
2023-12-19T23:42:50.204Z,1.70
2023-12-19T23:45:55.575Z,1.50
2023-12-19T23:49:02.444Z,1.30
2023-12-19T23:52:11.702Z,1.55
2023-12-19T23:55:18.752Z,1.10
2023-12-19T23:58:23.532Z,0.93
